MDT,Max TemperatureF,Mean TemperatureF,Min TemperatureF,Max Dew PointF,MeanDew PointF,Min DewpointF,Max Humidity, Mean Humidity, Min Humidity, Max Sea Level PressureIn, Mean Sea Level PressureIn, Min Sea Level PressureIn, Max VisibilityMiles, Mean VisibilityMiles, Min VisibilityMiles, Max Wind SpeedMPH, Mean Wind SpeedMPH, Max Gust SpeedMPH,PrecipitationIn, CloudCover, Events, WindDirDegrees
2013-4-1,64,48,32,22,16,7,61,29,12,29.99,29.86,29.75,10,10,10,25,8,36,0.00,0,,224
2013-4-2,55,39,27,26,19,13,79,44,26,29.97,29.88,29.83,10,10,10,20,6,40,0.00,3,Rain,282
2013-4-3,63,44,25,30,19,11,85,46,14,30.12,30.02,29.96,10,10,10,14,4,23,0.00,0,,354
2013-4-4,69,44,21,17,12,4,65,31,10,30.21,30.08,29.99,10,10,10,16,2,22,0.00,0,,210
2013-4-5,69,49,30,21,15,10,43,25,13,29.99,29.88,29.77,10,10,10,24,6,33,0.00,1,,232
2013-4-6,68,52,39,24,20,15,50,30,14,29.91,29.81,29.73,10,10,10,21,7,28,0.00,1,,234
2013-4-7,68,50,35,24,18,10,57,28,11,29.91,29.73,29.64,10,10,10,20,8,29,0.00,1,,244
2013-4-8,64,48,32,33,24,12,93,52,15,29.61,29.45,29.18,10,7,1,39,15,60,0.02,5,Rain-Snow,215
2013-4-9,39,34,30,32,30,27,100,86,63,29.81,29.58,29.29,10,6,0,16,5,22,0.20,8,Fog-Rain-Snow,262
2013-4-10,44,33,24,27,18,12,82,58,32,30.02,29.93,29.82,10,10,10,18,8,30,0.00,4,,334
2013-4-11,57,41,25,32,23,14,85,51,25,29.99,29.88,29.81,10,10,10,23,6,38,0.00,2,,337
2013-4-12,64,46,30,32,20,2,92,47,9,29.90,29.81,29.73,10,10,10,15,2,20,0.00,2,,284
2013-4-13,66,45,24,22,17,11,78,37,12,29.88,29.73,29.50,10,10,10,25,7,34,0.00,0,,242
2013-4-14,68,57,46,23,21,19,37,27,16,29.56,29.51,29.45,10,10,10,29,21,44,0.00,0,,244
2013-4-15,66,52,39,26,20,12,45,30,14,29.58,29.52,29.46,10,10,10,38,15,51,0.00,0,,222
2013-4-16,66,54,42,29,18,5,51,28,9,29.59,29.53,29.46,10,10,6,40,21,56,0.00,0,,217
2013-4-17,45,36,26,27,20,7,86,56,25,29.99,29.77,29.54,10,8,1,22,11,29,0.00,7,Rain-Snow,276
2013-4-18,26,22,19,17,17,15,85,75,69,30.09,30.02,29.99,10,10,10,7,5,,0.00,0,,358
2013-4-19,59,42,28,4,1,-3,33,17,9,30.28,30.08,29.98,10,10,10,16,6,24,0.00,0,,267
2013-4-20,62,42,23,14,7,1,44,23,9,30.06,29.94,29.86,10,9,3,24,7,36,0.00,1,,299
2013-4-21,69,44,23,18,12,6,58,30,11,30.11,30.01,29.92,10,10,10,16,3,32,0.00,0,,279
2013-4-22,73,54,35,16,12,7,39,19,8,29.91,29.78,29.65,10,10,10,25,8,36,0.00,0,,236
2013-4-23,55,45,26,17,6,-15,38,22,6,30.04,29.82,29.62,10,10,10,17,8,26,0.00,2,,312
2013-4-24,66,39,12,9,-3,-10,39,16,8,30.12,30.01,29.88,10,10,10,18,4,28,0.00,0,,272
2013-4-25,69,50,35,25,13,-1,41,23,12,30.01,29.88,29.78,10,10,5,23,5,39,0.00,3,,241
2013-4-26,69,50,33,23,11,-1,59,25,7,30.24,30.04,29.90,10,10,10,18,4,30,0.00,1,,301
2013-4-27,71,47,24,6,2,-3,38,18,6,30.18,30.09,30.01,10,10,10,13,2,20,0.00,0,,1
2013-4-28,75,49,25,8,3,-5,41,17,5,30.04,29.94,29.80,10,10,10,14,3,22,0.00,0,,249
2013-4-29,80,54,30,13,10,8,42,19,7,29.86,29.76,29.64,10,10,10,20,3,24,0.00,0,,269
2013-4-30,78,62,46,17,11,5,29,15,6,29.71,29.64,29.58,10,10,10,26,10,39,0.00,0,,238